Time;durP1;ratioP1;P1;durP2;ratioP2;P2;SDS_P1;SDS_P2;PMS_P1;PMS_P2;Temp;Humidity;BMP_temperature;BMP_pressure;BME280_temperature;BME280_humidity;BME280_pressure;Samples;Min_cycle;Max_cycle;Signal;HPM_P1;HPM_P2
2023/02/18 00:01:18;;;;;;;2.50;1.85;;;8.50;99.90;;;;;;4919563;29;20275;-81
2023/02/18 00:03:45;;;;;;;6.90;2.25;;;8.50;99.90;;;;;;4930316;29;20247;-80
2023/02/18 00:06:31;;;;;;;0.90;0.90;;;8.50;99.90;;;;;;4930396;29;20239;-80
2023/02/18 00:09:00;;;;;;;1.75;1.50;;;8.40;99.90;;;;;;4922901;29;20215;-80
2023/02/18 00:11:30;;;;;;;1.52;1.13;;;8.30;99.90;;;;;;4918596;29;20211;-80
2023/02/18 00:14:00;;;;;;;5.63;3.20;;;8.30;99.90;;;;;;4925519;29;20206;-80
2023/02/18 00:16:28;;;;;;;1.50;0.90;;;8.30;99.90;;;;;;4919758;29;20303;-80
2023/02/18 00:18:57;;;;;;;2.10;0.90;;;8.50;99.90;;;;;;4928764;29;20235;-81
2023/02/18 00:21:24;;;;;;;2.47;1.10;;;8.40;99.90;;;;;;4928526;29;20202;-79
2023/02/18 00:23:52;;;;;;;2.70;0.93;;;8.50;99.90;;;;;;4925917;29;20259;-81
2023/02/18 00:26:19;;;;;;;0.95;0.85;;;8.50;99.90;;;;;;4920007;29;20202;-80
2023/02/18 00:28:47;;;;;;;2.05;0.85;;;8.40;99.90;;;;;;4926596;29;20259;-80
2023/02/18 00:31:23;;;;;;;1.75;1.10;;;8.40;99.90;;;;;;4929025;29;20242;-80
2023/02/18 00:33:50;;;;;;;1.80;1.25;;;8.20;99.90;;;;;;4924764;29;20237;-80
2023/02/18 00:36:19;;;;;;;1.80;1.27;;;8.10;99.90;;;;;;4918055;29;20210;-81
2023/02/18 00:38:55;;;;;;;1.00;0.90;;;8.10;99.90;;;;;;4922813;29;20466;-79
2023/02/18 00:41:25;;;;;;;3.88;1.25;;;8.00;99.90;;;;;;4918235;29;20197;-80
2023/02/18 00:43:52;;;;;;;3.28;1.15;;;8.20;99.90;;;;;;4925375;29;20243;-79
2023/02/18 00:46:20;;;;;;;1.20;1.10;;;8.00;99.90;;;;;;4928450;29;20235;-82
2023/02/18 00:48:47;;;;;;;2.72;1.20;;;7.90;99.90;;;;;;4923748;29;20215;-80
2023/02/18 00:51:14;;;;;;;1.60;1.05;;;7.90;99.90;;;;;;4921467;29;20203;-80
2023/02/18 00:53:41;;;;;;;2.85;0.98;;;7.90;99.90;;;;;;4922859;29;20210;-80
2023/02/18 00:56:07;;;;;;;2.15;1.00;;;8.50;99.90;;;;;;4923796;29;20210;-80
2023/02/18 00:58:36;;;;;;;1.98;1.05;;;8.00;99.90;;;;;;4911800;29;20601;-80
2023/02/18 01:01:04;;;;;;;2.03;0.75;;;8.00;99.90;;;;;;4928311;29;20509;-79
2023/02/18 01:03:34;;;;;;;1.02;0.70;;;8.00;99.90;;;;;;4928643;29;20309;-79
2023/02/18 01:06:01;;;;;;;0.77;0.70;;;7.80;99.90;;;;;;4909729;29;20251;-79
2023/02/18 01:08:28;;;;;;;3.40;1.58;;;7.80;99.90;;;;;;4925622;29;20213;-81
2023/02/18 01:10:57;;;;;;;1.42;1.40;;;7.90;99.90;;;;;;4919816;29;20265;-80
2023/02/18 01:13:25;;;;;;;4.65;1.00;;;8.00;99.90;;;;;;4916261;29;20240;-82
2023/02/18 01:15:52;;;;;;;0.60;0.60;;;7.90;99.90;;;;;;4925838;29;20202;-80
2023/02/18 01:18:20;;;;;;;1.40;0.70;;;8.00;99.90;;;;;;4911332;29;20281;-82
2023/02/18 01:20:47;;;;;;;1.00;0.65;;;7.80;99.90;;;;;;4918481;29;20559;-80
2023/02/18 01:23:15;;;;;;;2.25;0.82;;;7.90;99.90;;;;;;4920489;29;20259;-80
2023/02/18 01:25:42;;;;;;;0.80;0.50;;;8.00;99.90;;;;;;4919258;29;20419;-80
2023/02/18 01:28:11;;;;;;;2.00;1.88;;;7.90;99.90;;;;;;4920480;29;20210;-80
2023/02/18 01:30:39;;;;;;;2.70;0.82;;;7.90;99.90;;;;;;4927925;29;20553;-81
2023/02/18 01:33:06;;;;;;;6.70;1.08;;;7.80;99.90;;;;;;4922559;29;20202;-80
2023/02/18 01:35:36;;;;;;;0.80;0.70;;;7.80;99.90;;;;;;4917265;29;20201;-80
2023/02/18 01:38:03;;;;;;;2.10;0.80;;;7.70;99.90;;;;;;4914208;29;20290;-82
2023/02/18 01:40:30;;;;;;;0.73;0.60;;;7.50;99.90;;;;;;4924257;29;20435;-79
2023/02/18 01:42:57;;;;;;;1.58;0.80;;;7.50;99.90;;;;;;4924412;29;20238;-79
2023/02/18 01:45:59;;;;;;;0.65;0.60;;;7.50;99.90;;;;;;4916359;29;20251;-78
2023/02/18 01:48:28;;;;;;;1.27;1.17;;;7.50;99.90;;;;;;4919439;29;20228;-80
2023/02/18 01:51:10;;;;;;;3.40;1.17;;;7.40;99.90;;;;;;4918082;29;20202;-79
2023/02/18 01:53:40;;;;;;;2.80;0.63;;;7.50;99.90;;;;;;4919509;29;20251;-79
2023/02/18 01:56:12;;;;;;;2.40;1.10;;;7.50;99.90;;;;;;4926219;29;20431;-80
2023/02/18 01:58:39;;;;;;;1.60;0.73;;;7.40;99.90;;;;;;4922795;29;20259;-81
2023/02/18 02:01:08;;;;;;;1.17;0.93;;;7.50;99.90;;;;;;4919018;29;20214;-80
2023/02/18 02:03:35;;;;;;;0.60;0.57;;;7.40;99.90;;;;;;4917587;29;20273;-80
2023/02/18 02:06:11;;;;;;;1.55;0.70;;;7.30;99.90;;;;;;4923657;29;20584;-79
2023/02/18 02:08:38;;;;;;;1.90;0.90;;;7.20;99.90;;;;;;4924599;29;20210;-80
2023/02/18 02:11:14;;;;;;;1.90;1.27;;;7.10;99.90;;;;;;4919315;29;20221;-80
2023/02/18 02:13:59;;;;;;;3.25;1.10;;;6.90;99.90;;;;;;4922872;29;20204;-79
2023/02/18 02:16:54;;;;;;;3.20;1.10;;;6.90;99.90;;;;;;4922078;29;20426;-79
2023/02/18 02:19:40;;;;;;;1.38;0.75;;;6.70;99.90;;;;;;4926641;29;20543;-80
2023/02/18 02:22:55;;;;;;;1.00;0.70;;;6.60;99.90;;;;;;4932706;29;20204;-81
2023/02/18 02:25:50;;;;;;;0.77;0.75;;;6.50;99.90;;;;;;4910186;29;20208;-81
2023/02/18 02:28:42;;;;;;;1.65;1.00;;;6.40;99.90;;;;;;4921118;29;20212;-80
2023/02/18 02:31:46;;;;;;;1.45;1.15;;;6.40;99.90;;;;;;4917161;29;20500;-81
2023/02/18 02:34:27;;;;;;;3.15;1.45;;;6.50;99.90;;;;;;4921442;29;20200;-81
2023/02/18 02:37:14;;;;;;;3.55;1.05;;;6.50;99.90;;;;;;4917561;29;20241;-79
2023/02/18 02:39:54;;;;;;;1.65;0.85;;;6.40;99.90;;;;;;4918781;29;20236;-79
2023/02/18 02:42:41;;;;;;;1.77;1.08;;;6.40;99.90;;;;;;4916801;29;20324;-80
2023/02/18 02:45:33;;;;;;;1.50;1.15;;;6.60;99.90;;;;;;4922028;29;20268;-81
2023/02/18 02:48:18;;;;;;;4.43;1.20;;;6.60;99.90;;;;;;4920610;29;20256;-80
2023/02/18 02:51:24;;;;;;;1.30;0.90;;;6.80;99.90;;;;;;4921708;29;20220;-80
2023/02/18 02:53:51;;;;;;;1.77;1.02;;;6.90;99.90;;;;;;4923128;29;20410;-78
2023/02/18 02:56:22;;;;;;;2.47;1.10;;;6.90;99.90;;;;;;4915903;29;20501;-80
2023/02/18 02:59:03;;;;;;;2.03;0.85;;;6.80;99.90;;;;;;4911786;29;20233;-78
2023/02/18 03:02:06;;;;;;;2.65;0.70;;;6.80;99.90;;;;;;4921728;29;20433;-78
2023/02/18 03:05:06;;;;;;;1.25;1.02;;;6.60;99.90;;;;;;4924717;29;20204;-81
2023/02/18 03:08:06;;;;;;;0.70;0.70;;;6.60;99.90;;;;;;4921593;29;20209;-82
2023/02/18 03:11:08;;;;;;;3.22;0.80;;;6.60;99.90;;;;;;4915572;29;20434;-79
2023/02/18 03:13:38;;;;;;;1.35;0.98;;;6.50;99.90;;;;;;4897350;29;20240;-79
2023/02/18 03:16:24;;;;;;;3.15;0.70;;;6.50;99.90;;;;;;4916713;29;20626;-79
2023/02/18 03:19:11;;;;;;;0.60;0.60;;;6.50;99.90;;;;;;4919220;29;20224;-80
2023/02/18 03:21:54;;;;;;;1.48;0.88;;;6.50;99.90;;;;;;4923043;29;20632;-81
2023/02/18 03:24:38;;;;;;;9.38;1.05;;;6.30;99.90;;;;;;4915502;29;20208;-80
2023/02/18 03:27:16;;;;;;;3.28;1.33;;;6.30;99.90;;;;;;4926733;29;20200;-80
2023/02/18 03:29:47;;;;;;;2.90;0.88;;;6.20;99.90;;;;;;4926716;29;20216;-78
2023/02/18 03:32:18;;;;;;;1.90;0.80;;;6.40;99.90;;;;;;4923113;29;20493;-80
2023/02/18 03:34:49;;;;;;;2.17;0.80;;;7.00;99.90;;;;;;4921326;29;20264;-79
2023/02/18 03:37:18;;;;;;;0.93;0.60;;;6.50;99.90;;;;;;4916712;29;20244;-80
2023/02/18 03:39:50;;;;;;;4.57;0.90;;;6.40;99.90;;;;;;4922631;29;20236;-79
2023/02/18 03:42:17;;;;;;;1.65;0.65;;;6.30;99.90;;;;;;4925551;29;20228;-78
2023/02/18 03:44:44;;;;;;;2.63;0.90;;;6.20;99.90;;;;;;4913123;29;20280;-81
2023/02/18 03:47:12;;;;;;;3.83;1.30;;;6.20;99.90;;;;;;4915083;29;20201;-80
2023/02/18 03:49:39;;;;;;;2.65;1.00;;;6.10;99.90;;;;;;4917539;29;20401;-80
2023/02/18 03:52:06;;;;;;;1.73;0.85;;;6.20;99.90;;;;;;4914947;29;20558;-80
2023/02/18 03:54:33;;;;;;;2.80;0.70;;;6.20;99.90;;;;;;4919909;29;20421;-79
2023/02/18 03:56:59;;;;;;;1.17;1.02;;;6.20;99.90;;;;;;4924421;29;20243;-78
2023/02/18 03:59:26;;;;;;;2.00;1.00;;;6.10;99.90;;;;;;4919119;29;20267;-79
2023/02/18 04:01:54;;;;;;;2.25;0.73;;;6.40;99.90;;;;;;4917569;29;20260;-81
2023/02/18 04:04:21;;;;;;;2.00;0.85;;;6.20;99.90;;;;;;4924005;29;20204;-80
2023/02/18 04:06:48;;;;;;;2.90;0.82;;;6.10;99.90;;;;;;4924782;29;20212;-81
2023/02/18 04:09:14;;;;;;;5.28;1.15;;;6.20;99.90;;;;;;4913835;29;20206;-81
2023/02/18 04:11:41;;;;;;;0.70;0.57;;;6.00;99.90;;;;;;4919323;29;20205;-79
2023/02/18 04:14:11;;;;;;;2.17;0.93;;;6.00;99.90;;;;;;4921249;29;20248;-79
2023/02/18 04:16:38;;;;;;;4.47;0.60;;;6.00;99.90;;;;;;4918560;29;20369;-82
2023/02/18 04:19:06;;;;;;;2.28;0.82;;;6.00;99.90;;;;;;4917056;29;20246;-81
2023/02/18 04:21:33;;;;;;;2.63;0.85;;;6.00;99.90;;;;;;4911958;29;20493;-81
2023/02/18 04:24:01;;;;;;;3.55;1.00;;;5.90;99.90;;;;;;4916714;29;20204;-82
2023/02/18 04:26:28;;;;;;;1.25;0.85;;;5.80;99.90;;;;;;4917093;29;20228;-79
2023/02/18 04:28:56;;;;;;;1.27;0.70;;;5.80;99.90;;;;;;4924218;29;20437;-81
2023/02/18 04:31:23;;;;;;;1.80;1.15;;;5.90;99.90;;;;;;4917825;29;20224;-81
2023/02/18 04:33:50;;;;;;;0.95;0.75;;;6.00;99.90;;;;;;4919906;29;20445;-82
2023/02/18 04:36:17;;;;;;;1.95;1.20;;;6.10;99.90;;;;;;4914779;29;20260;-81
2023/02/18 04:38:44;;;;;;;2.53;1.02;;;6.20;99.90;;;;;;4928414;29;20272;-80
2023/02/18 04:41:11;;;;;;;1.20;0.70;;;6.00;99.90;;;;;;4923083;29;20244;-79
2023/02/18 04:43:38;;;;;;;1.63;0.75;;;5.90;99.90;;;;;;4920278;29;20284;-79
2023/02/18 04:46:06;;;;;;;0.80;0.80;;;6.10;99.90;;;;;;4914227;29;20390;-81
2023/02/18 04:48:33;;;;;;;1.85;0.85;;;6.20;99.90;;;;;;4927826;29;20215;-79
2023/02/18 04:51:01;;;;;;;1.60;0.82;;;6.10;99.90;;;;;;4928038;29;20516;-80
2023/02/18 04:53:28;;;;;;;1.35;1.02;;;6.10;99.90;;;;;;4918567;29;20248;-80
2023/02/18 04:55:55;;;;;;;0.80;0.55;;;6.20;99.90;;;;;;4919695;29;20480;-78
2023/02/18 04:58:22;;;;;;;0.98;0.80;;;6.30;99.90;;;;;;4924047;29;20238;-81
2023/02/18 05:00:49;;;;;;;1.52;0.60;;;6.40;99.90;;;;;;4928006;29;20217;-79
2023/02/18 05:03:16;;;;;;;0.70;0.70;;;6.50;99.90;;;;;;4927898;29;20233;-79
2023/02/18 05:05:44;;;;;;;2.15;0.80;;;6.50;99.90;;;;;;4922754;29;20205;-78
2023/02/18 05:08:11;;;;;;;3.53;1.95;;;6.40;99.90;;;;;;4916781;29;20204;-79
2023/02/18 05:10:38;;;;;;;2.15;1.02;;;6.30;99.90;;;;;;4917590;29;20205;-80
2023/02/18 05:13:05;;;;;;;2.40;0.80;;;6.30;99.90;;;;;;4914470;29;20200;-79
2023/02/18 05:15:33;;;;;;;7.25;1.10;;;6.20;99.90;;;;;;4922479;29;20505;-79
2023/02/18 05:18:00;;;;;;;2.00;1.10;;;6.20;99.90;;;;;;4915630;29;20200;-80
2023/02/18 05:20:27;;;;;;;2.33;1.10;;;6.30;99.90;;;;;;4925720;29;20231;-80
2023/02/18 05:22:54;;;;;;;1.25;0.85;;;6.40;99.90;;;;;;4927492;29;20228;-80
2023/02/18 05:25:22;;;;;;;1.15;0.77;;;6.50;99.90;;;;;;4924953;29;20219;-78
2023/02/18 05:27:49;;;;;;;8.15;0.80;;;6.50;99.90;;;;;;4921834;29;20250;-80
2023/02/18 05:30:16;;;;;;;1.77;1.05;;;6.50;99.90;;;;;;4915839;29;20241;-80
2023/02/18 05:32:43;;;;;;;2.30;1.25;;;6.70;99.90;;;;;;4922326;29;20208;-79
2023/02/18 05:35:10;;;;;;;1.88;0.95;;;6.70;99.90;;;;;;4932055;29;20200;-79
2023/02/18 05:37:37;;;;;;;4.05;0.90;;;7.50;99.90;;;;;;4922146;29;20243;-79
2023/02/18 05:40:05;;;;;;;1.75;0.80;;;7.10;99.90;;;;;;4911914;29;20588;-79
2023/02/18 05:42:32;;;;;;;1.85;0.70;;;6.60;99.90;;;;;;4921449;29;20556;-79
2023/02/18 05:44:59;;;;;;;2.05;0.70;;;6.70;99.90;;;;;;4918994;29;20540;-80
2023/02/18 05:47:26;;;;;;;2.15;0.80;;;6.90;99.90;;;;;;4929061;29;20225;-78
2023/02/18 05:49:54;;;;;;;1.00;0.90;;;6.80;99.90;;;;;;4926704;29;20251;-78
2023/02/18 05:52:21;;;;;;;3.70;1.15;;;6.90;99.90;;;;;;4922531;29;20273;-80
2023/02/18 05:54:48;;;;;;;1.67;0.88;;;7.10;99.90;;;;;;4916778;29;20213;-81
2023/02/18 05:57:16;;;;;;;0.73;0.60;;;7.00;99.90;;;;;;4914494;29;20241;-79
2023/02/18 05:59:42;;;;;;;1.45;1.35;;;7.00;99.90;;;;;;4919844;29;20277;-81
2023/02/18 06:02:09;;;;;;;2.50;0.93;;;6.90;99.90;;;;;;4924889;29;20205;-79
2023/02/18 06:04:36;;;;;;;3.42;1.33;;;6.90;99.90;;;;;;4926915;29;20208;-79
2023/02/18 06:07:03;;;;;;;2.58;0.70;;;7.00;99.90;;;;;;4931054;29;20204;-81
2023/02/18 06:09:30;;;;;;;2.17;1.00;;;7.10;99.90;;;;;;4914265;29;20253;-81
2023/02/18 06:11:57;;;;;;;4.63;1.30;;;7.00;99.90;;;;;;4910574;29;20213;-80
2023/02/18 06:14:24;;;;;;;2.55;0.90;;;7.10;99.90;;;;;;4917274;29;20363;-82
2023/02/18 06:16:52;;;;;;;1.65;0.95;;;7.20;99.90;;;;;;4926815;29;20279;-81
2023/02/18 06:19:18;;;;;;;1.50;1.15;;;7.20;99.90;;;;;;4915298;29;20273;-78
2023/02/18 06:21:46;;;;;;;0.70;0.70;;;7.20;99.90;;;;;;4934651;29;20205;-80
2023/02/18 06:24:13;;;;;;;3.55;1.08;;;7.30;99.90;;;;;;4912649;29;20250;-79
2023/02/18 06:26:40;;;;;;;1.90;1.45;;;7.30;99.90;;;;;;4919116;29;20252;-81
2023/02/18 06:29:07;;;;;;;3.38;0.88;;;7.30;99.90;;;;;;4924655;29;20209;-83
2023/02/18 06:31:34;;;;;;;0.73;0.63;;;7.30;99.90;;;;;;4918239;29;20206;-79
2023/02/18 06:34:01;;;;;;;0.50;0.50;;;7.40;99.90;;;;;;4919259;29;20445;-79
2023/02/18 06:36:28;;;;;;;2.25;1.17;;;7.40;99.90;;;;;;4914854;29;20201;-79
2023/02/18 06:38:56;;;;;;;2.05;0.95;;;7.40;99.90;;;;;;4919075;29;20552;-79
2023/02/18 06:41:23;;;;;;;4.05;1.40;;;7.50;99.90;;;;;;4918329;29;20211;-79
2023/02/18 06:43:50;;;;;;;2.67;1.08;;;7.50;99.90;;;;;;4918857;29;20389;-79
2023/02/18 06:46:17;;;;;;;3.70;0.77;;;7.60;99.90;;;;;;4921849;29;20634;-80
2023/02/18 06:48:44;;;;;;;0.98;0.57;;;7.70;99.90;;;;;;4926036;29;20362;-79
2023/02/18 06:51:11;;;;;;;0.60;0.60;;;7.70;99.90;;;;;;4918851;29;20221;-79
2023/02/18 06:53:38;;;;;;;1.90;1.05;;;7.70;99.90;;;;;;4924847;29;20208;-82
2023/02/18 06:56:05;;;;;;;1.80;0.55;;;7.60;99.90;;;;;;4919411;29;20206;-81
2023/02/18 06:58:32;;;;;;;1.05;0.85;;;7.40;99.90;;;;;;4924271;29;20240;-78
2023/02/18 07:01:00;;;;;;;2.70;0.82;;;7.60;99.90;;;;;;4921588;29;20220;-81
2023/02/18 07:03:26;;;;;;;1.70;1.00;;;7.60;99.90;;;;;;4917985;29;20251;-79
2023/02/18 07:05:53;;;;;;;2.22;0.70;;;7.70;99.90;;;;;;4918166;29;20221;-80
2023/02/18 07:08:20;;;;;;;2.70;1.05;;;7.60;99.90;;;;;;4913054;29;20202;-81
2023/02/18 07:10:48;;;;;;;3.90;1.58;;;7.50;99.90;;;;;;4916146;29;20212;-80
2023/02/18 07:13:15;;;;;;;2.05;1.60;;;7.60;99.90;;;;;;4917937;29;20213;-80
2023/02/18 07:15:43;;;;;;;3.33;1.08;;;;;;;;;;4920064;29;20210;-80
2023/02/18 07:18:10;;;;;;;0.85;0.80;;;7.70;99.90;;;;;;4917767;29;20202;-79
2023/02/18 07:20:37;;;;;;;9.13;1.63;;;7.70;99.90;;;;;;4925395;29;20238;-79
2023/02/18 07:23:04;;;;;;;1.75;0.80;;;8.00;99.90;;;;;;4919775;29;20213;-78
2023/02/18 07:25:31;;;;;;;0.80;0.77;;;7.70;99.90;;;;;;4914580;29;20200;-78
2023/02/18 07:27:58;;;;;;;2.55;1.20;;;7.90;99.90;;;;;;4915361;29;20444;-81
2023/02/18 07:30:25;;;;;;;3.60;1.02;;;7.90;99.90;;;;;;4919664;29;20206;-80
2023/02/18 07:32:53;;;;;;;0.60;0.60;;;;;;;;;;4922661;29;20218;-80
2023/02/18 07:35:20;;;;;;;1.40;0.90;;;8.50;99.90;;;;;;4911535;29;20230;-79
2023/02/18 07:37:48;;;;;;;4.35;1.35;;;8.00;99.90;;;;;;4920295;29;20438;-79
2023/02/18 07:40:20;;;;;;;1.60;1.13;;;7.90;99.90;;;;;;4907128;29;20243;-79
2023/02/18 07:42:47;;;;;;;2.55;0.90;;;8.20;99.90;;;;;;4913743;29;20540;-81
2023/02/18 07:45:14;;;;;;;1.65;0.77;;;8.30;99.90;;;;;;4915122;29;20492;-80
2023/02/18 07:47:41;;;;;;;4.10;0.93;;;8.40;99.90;;;;;;4918817;29;20206;-80
2023/02/18 07:50:10;;;;;;;1.50;1.15;;;8.40;99.90;;;;;;4919711;29;20254;-80
2023/02/18 07:52:37;;;;;;;2.40;1.10;;;8.40;99.90;;;;;;4915992;29;20252;-81
2023/02/18 07:55:04;;;;;;;1.90;0.70;;;8.50;99.90;;;;;;4921535;29;20292;-79
2023/02/18 07:57:31;;;;;;;1.02;0.80;;;8.60;99.90;;;;;;4915350;29;20218;-79
2023/02/18 07:59:58;;;;;;;5.40;1.88;;;8.70;99.90;;;;;;4915785;29;20547;-79
2023/02/18 08:02:25;;;;;;;4.82;0.85;;;8.70;99.90;;;;;;4924107;29;20513;-80
2023/02/18 08:04:53;;;;;;;2.08;1.88;;;8.90;99.90;;;;;;4916291;29;20211;-80
2023/02/18 08:07:21;;;;;;;1.58;0.52;;;8.80;99.90;;;;;;4927215;29;20207;-80
2023/02/18 08:09:49;;;;;;;1.20;0.90;;;8.90;99.90;;;;;;4915852;29;20223;-79
2023/02/18 08:12:17;;;;;;;5.53;1.02;;;8.70;99.90;;;;;;4924652;29;20219;-79
2023/02/18 08:14:44;;;;;;;2.50;0.82;;;;;;;;;;4923022;29;20264;-79
2023/02/18 08:17:10;;;;;;;8.23;1.63;;;9.00;99.90;;;;;;4917735;29;20227;-79
2023/02/18 08:19:37;;;;;;;0.93;0.93;;;9.00;99.90;;;;;;4925386;29;20244;-80
2023/02/18 08:22:04;;;;;;;2.38;0.73;;;9.00;99.90;;;;;;4925154;29;20219;-79
2023/02/18 08:24:31;;;;;;;2.28;1.10;;;9.00;99.90;;;;;;4925776;29;20214;-79
2023/02/18 08:26:58;;;;;;;4.90;2.70;;;9.10;99.90;;;;;;4921208;29;20216;-80
2023/02/18 08:29:27;;;;;;;3.17;1.35;;;9.10;99.90;;;;;;4923072;29;20546;-80
2023/02/18 08:31:56;;;;;;;0.85;0.60;;;9.20;99.90;;;;;;4917753;29;20288;-80
2023/02/18 08:34:24;;;;;;;4.80;0.93;;;9.20;99.90;;;;;;4920210;29;20319;-79
2023/02/18 08:36:51;;;;;;;1.05;0.90;;;9.20;99.90;;;;;;4928145;29;20214;-80
2023/02/18 08:39:18;;;;;;;2.53;0.98;;;9.20;99.90;;;;;;4914296;29;20219;-81
2023/02/18 08:41:45;;;;;;;8.00;1.20;;;9.40;99.90;;;;;;4927919;29;20207;-79
2023/02/18 08:44:12;;;;;;;1.40;1.30;;;9.60;99.90;;;;;;4921922;29;20381;-80
2023/02/18 08:46:39;;;;;;;1.90;0.90;;;10.90;99.90;;;;;;4919087;29;20204;-80
2023/02/18 08:49:06;;;;;;;1.30;0.82;;;10.30;99.90;;;;;;4920141;29;20212;-78
2023/02/18 08:51:34;;;;;;;4.85;1.65;;;9.60;99.90;;;;;;4924625;29;20212;-82
2023/02/18 08:54:01;;;;;;;0.65;0.63;;;10.00;99.90;;;;;;4928614;29;20545;-79
2023/02/18 08:56:28;;;;;;;4.65;1.25;;;10.70;99.90;;;;;;4920655;29;20208;-79
2023/02/18 08:58:55;;;;;;;4.72;1.02;;;10.50;99.90;;;;;;4928477;29;20211;-79
2023/02/18 09:01:22;;;;;;;1.95;1.05;;;9.30;99.90;;;;;;4928227;29;20243;-80
2023/02/18 09:03:49;;;;;;;2.15;0.70;;;8.90;99.90;;;;;;4917725;29;20400;-80
2023/02/18 09:06:16;;;;;;;1.90;1.13;;;9.00;99.90;;;;;;4918172;29;20262;-77
2023/02/18 09:08:43;;;;;;;1.35;1.00;;;8.90;99.90;;;;;;4921433;29;20374;-80
2023/02/18 09:11:11;;;;;;;1.05;0.80;;;9.00;99.90;;;;;;4914796;29;20207;-82
2023/02/18 09:13:38;;;;;;;2.30;1.33;;;10.70;99.90;;;;;;4920950;29;20207;-81
2023/02/18 09:16:09;;;;;;;2.47;1.02;;;9.00;99.90;;;;;;4941232;29;20219;-79
2023/02/18 09:18:37;;;;;;;0.73;0.73;;;9.20;99.90;;;;;;4934126;29;20207;-79
2023/02/18 09:21:05;;;;;;;0.80;0.57;;;9.30;99.90;;;;;;4927528;29;20275;-80
2023/02/18 09:23:34;;;;;;;3.13;0.70;;;9.10;99.90;;;;;;4924662;29;20279;-82
2023/02/18 09:26:07;;;;;;;1.60;0.82;;;9.00;99.90;;;;;;4926642;29;20211;-81
2023/02/18 09:28:36;;;;;;;1.63;1.02;;;8.90;99.90;;;;;;4912415;29;20236;-78
2023/02/18 09:31:08;;;;;;;1.50;0.90;;;8.90;99.90;;;;;;4924085;29;20492;-81
2023/02/18 09:33:38;;;;;;;0.85;0.82;;;8.90;99.90;;;;;;4917394;29;20199;-78
2023/02/18 09:36:06;;;;;;;1.92;1.15;;;9.60;99.90;;;;;;4924140;29;20207;-80
2023/02/18 09:38:33;;;;;;;1.85;1.10;;;9.20;99.90;;;;;;4919777;29;20246;-81
2023/02/18 09:41:04;;;;;;;3.20;1.05;;;10.50;99.90;;;;;;4924065;29;20286;-79
2023/02/18 09:43:42;;;;;;;0.90;0.90;;;9.40;99.90;;;;;;4920343;29;20215;-79
2023/02/18 09:46:34;;;;;;;2.50;0.70;;;9.20;99.90;;;;;;4923316;29;20207;-80
2023/02/18 09:49:12;;;;;;;4.18;0.90;;;9.20;99.90;;;;;;4916456;29;20208;-79
2023/02/18 09:51:39;;;;;;;1.15;1.02;;;9.20;99.90;;;;;;4916349;29;20547;-80
2023/02/18 09:54:13;;;;;;;2.88;1.25;;;9.20;99.90;;;;;;4921169;29;20246;-79
2023/02/18 09:56:42;;;;;;;1.38;1.05;;;9.20;99.90;;;;;;4913788;29;20231;-79
2023/02/18 09:59:20;;;;;;;2.15;0.80;;;9.30;99.90;;;;;;4926148;29;20207;-79
2023/02/18 10:01:50;;;;;;;5.22;0.98;;;9.40;99.90;;;;;;4912798;29;20218;-81
2023/02/18 10:04:23;;;;;;;0.95;0.85;;;9.40;99.90;;;;;;4917811;29;20211;-81
2023/02/18 10:06:52;;;;;;;3.75;1.50;;;9.20;99.90;;;;;;4924772;29;20504;-80
2023/02/18 10:09:24;;;;;;;1.65;0.80;;;9.10;99.90;;;;;;4926336;29;20264;-79
2023/02/18 10:11:55;;;;;;;1.35;0.60;;;9.30;99.90;;;;;;4917685;29;20746;-79
2023/02/18 10:14:24;;;;;;;2.55;0.90;;;9.60;99.90;;;;;;4915755;29;20231;-79
2023/02/18 10:16:52;;;;;;;0.73;0.70;;;9.10;99.90;;;;;;4921388;29;20255;-79
2023/02/18 10:19:31;;;;;;;3.13;1.35;;;9.90;99.90;;;;;;4926166;29;20207;-81
2023/02/18 10:22:01;;;;;;;1.80;1.17;;;8.90;99.90;;;;;;4916832;29;20219;-79
2023/02/18 10:24:32;;;;;;;1.50;1.10;;;8.90;99.90;;;;;;4922818;29;20365;-80
2023/02/18 10:27:02;;;;;;;1.25;1.02;;;9.30;99.90;;;;;;4926381;29;20220;-79
2023/02/18 10:29:31;;;;;;;2.50;2.30;;;8.90;99.90;;;;;;4917957;29;20202;-81
2023/02/18 10:32:15;;;;;;;2.25;1.15;;;9.60;99.90;;;;;;4920823;29;20211;-80
2023/02/18 10:35:14;;;;;;;1.30;1.10;;;8.90;99.90;;;;;;4923695;29;20274;-79
2023/02/18 10:37:53;;;;;;;2.20;1.40;;;8.90;99.90;;;;;;4915571;29;20433;-79
2023/02/18 10:40:57;;;;;;;4.28;1.63;;;9.20;99.90;;;;;;4923777;29;20251;-80
2023/02/18 10:43:55;;;;;;;4.90;2.00;;;8.90;99.90;;;;;;4936501;29;20222;-81
2023/02/18 10:46:27;;;;;;;3.00;1.60;;;8.80;99.90;;;;;;4923335;29;20211;-80
2023/02/18 10:49:30;;;;;;;2.13;1.92;;;8.90;99.90;;;;;;4919982;29;20482;-79
2023/02/18 10:52:00;;;;;;;2.15;1.00;;;8.90;99.90;;;;;;4925256;29;20256;-81
2023/02/18 10:55:03;;;;;;;2.70;1.00;;;10.20;99.90;;;;;;4923620;29;20212;-80
2023/02/18 10:57:32;;;;;;;2.20;1.00;;;8.90;99.90;;;;;;4927426;29;20250;-80
2023/02/18 11:00:14;;;;;;;2.00;1.33;;;8.70;99.90;;;;;;4919423;29;20239;-79
2023/02/18 11:02:41;;;;;;;10.82;2.05;;;8.60;99.90;;;;;;4920973;29;20242;-79
2023/02/18 11:05:25;;;;;;;4.70;1.17;;;8.80;99.90;;;;;;4915079;29;20211;-79
2023/02/18 11:07:56;;;;;;;1.88;1.10;;;8.80;99.90;;;;;;4921383;29;20217;-79
2023/02/18 11:10:28;;;;;;;1.85;1.23;;;9.00;99.90;;;;;;4926171;29;20219;-80
2023/02/18 11:12:59;;;;;;;2.08;1.20;;;9.10;99.90;;;;;;4916459;29;20215;-80
2023/02/18 11:15:28;;;;;;;8.65;1.85;;;9.30;99.90;;;;;;4918718;29;20271;-80
2023/02/18 11:17:58;;;;;;;1.13;1.00;;;9.20;99.90;;;;;;4924661;29;20207;-80
2023/02/18 11:20:32;;;;;;;1.92;1.30;;;9.20;99.90;;;;;;4924708;29;20425;-79
2023/02/18 11:23:05;;;;;;;2.92;1.52;;;9.20;99.90;;;;;;4918119;29;20210;-80
2023/02/18 11:25:35;;;;;;;2.45;1.67;;;9.10;99.90;;;;;;4922874;29;20240;-80
2023/02/18 11:28:11;;;;;;;7.97;1.73;;;9.10;99.90;;;;;;4922673;29;20499;-80
2023/02/18 11:30:41;;;;;;;2.22;1.92;;;9.10;99.90;;;;;;4907744;29;20211;-79
2023/02/18 11:33:17;;;;;;;4.55;1.75;;;9.10;99.90;;;;;;4916394;29;20204;-81
2023/02/18 11:35:50;;;;;;;2.67;1.45;;;10.00;99.90;;;;;;4913063;29;20562;-80
2023/02/18 11:38:41;;;;;;;5.30;2.85;;;9.50;99.90;;;;;;4917160;29;20223;-79
2023/02/18 11:41:28;;;;;;;12.13;2.30;;;9.60;99.90;;;;;;4929392;29;20294;-80
2023/02/18 11:43:56;;;;;;;6.82;2.97;;;9.50;99.90;;;;;;4929845;29;20387;-80
2023/02/18 11:46:25;;;;;;;3.80;2.70;;;9.70;99.90;;;;;;4921513;29;20501;-81
2023/02/18 11:48:53;;;;;;;2.13;1.98;;;9.70;99.90;;;;;;4929295;29;20232;-79
2023/02/18 11:51:35;;;;;;;3.25;2.20;;;9.70;99.90;;;;;;4929867;29;20239;-79
2023/02/18 11:54:19;;;;;;;3.28;1.77;;;10.70;99.90;;;;;;4922576;29;20260;-80
2023/02/18 11:57:04;;;;;;;2.17;1.80;;;10.00;99.90;;;;;;4917027;29;20209;-80
2023/02/18 11:59:35;;;;;;;4.78;1.65;;;10.30;99.90;;;;;;4920812;29;20223;-81
2023/02/18 12:02:26;;;;;;;5.78;2.47;;;10.40;99.90;;;;;;4930048;29;20232;-80
2023/02/18 12:05:01;;;;;;;4.50;2.20;;;10.10;99.90;;;;;;4923168;29;20232;-79
2023/02/18 12:07:45;;;;;;;8.60;3.30;;;10.30;99.90;;;;;;4926815;29;20425;-81
2023/02/18 12:10:33;;;;;;;5.63;3.08;;;10.30;99.90;;;;;;4912856;29;20248;-81
2023/02/18 12:13:02;;;;;;;5.15;2.72;;;10.20;99.90;;;;;;4929475;29;20559;-81
2023/02/18 12:16:12;;;;;;;4.60;3.30;;;10.20;99.90;;;;;;4920968;29;20223;-79
2023/02/18 12:18:52;;;;;;;9.27;3.83;;;9.90;99.90;;;;;;4894930;29;20516;-80
2023/02/18 12:21:58;;;;;;;5.35;4.00;;;9.70;99.90;;;;;;4923666;29;20279;-80
2023/02/18 12:24:31;;;;;;;8.93;3.97;;;9.40;99.90;;;;;;4876181;29;20593;-80
2023/02/18 12:27:43;;;;;;;10.75;4.78;;;9.50;99.90;;;;;;4918843;29;20503;-80
2023/02/18 12:30:28;;;;;;;6.72;3.95;;;9.20;99.90;;;;;;4899856;29;20203;-81
2023/02/18 12:33:20;;;;;;;10.95;5.90;;;9.00;99.90;;;;;;4913541;29;20397;-81
2023/02/18 12:36:02;;;;;;;12.30;6.10;;;8.80;99.90;;;;;;4921238;29;20208;-79
2023/02/18 12:39:11;;;;;;;19.02;8.55;;;8.70;99.90;;;;;;4919351;29;20275;-81
2023/02/18 12:42:11;;;;;;;10.80;4.22;;;9.00;99.90;;;;;;4928563;29;20235;-82
2023/02/18 12:44:44;;;;;;;16.70;9.13;;;9.20;99.90;;;;;;4917534;29;20386;-80
2023/02/18 12:47:30;;;;;;;11.93;6.13;;;9.30;99.90;;;;;;4920888;29;20218;-81
2023/02/18 12:50:14;;;;;;;15.95;8.63;;;9.20;99.90;;;;;;4918723;29;20500;-81
2023/02/18 12:52:47;;;;;;;7.78;6.25;;;9.60;99.90;;;;;;4917013;29;20203;-82
2023/02/18 12:55:31;;;;;;;7.10;5.10;;;8.70;99.90;;;;;;4926748;29;20207;-81
2023/02/18 12:58:19;;;;;;;9.48;5.40;;;8.30;99.90;;;;;;4918034;29;20248;-81
2023/02/18 13:00:59;;;;;;;9.75;5.75;;;8.00;99.90;;;;;;4927457;29;20257;-81
2023/02/18 13:04:00;;;;;;;18.58;7.90;;;8.00;99.90;;;;;;4927453;29;20222;-81
2023/02/18 13:07:11;;;;;;;13.05;6.43;;;8.00;99.90;;;;;;4925698;29;20225;-81
2023/02/18 13:09:56;;;;;;;17.15;7.60;;;7.80;99.90;;;;;;4920670;29;20515;-81
2023/02/18 13:12:26;;;;;;;15.38;11.50;;;7.60;99.90;;;;;;4933029;29;20206;-82
2023/02/18 13:15:40;;;;;;;14.98;8.65;;;7.60;99.90;;;;;;4923818;29;20223;-81
2023/02/18 13:18:21;;;;;;;15.85;7.72;;;7.50;99.90;;;;;;4866094;29;20203;-80
2023/02/18 13:21:00;;;;;;;11.52;5.72;;;7.50;99.90;;;;;;4870403;29;20255;-81
2023/02/18 13:23:34;;;;;;;12.32;6.70;;;7.50;99.90;;;;;;4910850;29;20528;-80
2023/02/18 13:26:05;;;;;;;17.90;6.32;;;8.80;99.90;;;;;;4921681;29;20228;-81
2023/02/18 13:29:07;;;;;;;14.40;6.95;;;8.00;99.90;;;;;;4940851;29;20210;-81